Time;durP1;ratioP1;P1;durP2;ratioP2;P2;SDS_P1;SDS_P2;PMS_P1;PMS_P2;Temp;Humidity;BMP_temperature;BMP_pressure;BME280_temperature;BME280_humidity;BME280_pressure;Samples;Min_cycle;Max_cycle;Signal;HPM_P1;HPM_P2
2022/04/01 00:01:48;;;;;;;0.13;0.00;;;;;;;23.97;53.58;101665.38;5033717;28;20032;-66
2022/04/01 00:04:14;;;;;;;0.55;0.10;;;;;;;23.94;53.14;101666.63;5033548;28;20092;-65
2022/04/01 00:06:39;;;;;;;0.10;0.10;;;;;;;23.94;53.92;101671.25;5033693;28;20025;-65
2022/04/01 00:09:05;;;;;;;0.17;0.10;;;;;;;23.94;53.37;101672.09;5033728;28;20116;-66
2022/04/01 00:11:30;;;;;;;0.68;0.28;;;;;;;23.93;53.68;101675.03;5033493;28;20025;-65
2022/04/01 00:13:56;;;;;;;0.10;0.03;;;;;;;23.95;53.35;101673.81;5033527;28;20028;-67
2022/04/01 00:16:21;;;;;;;0.20;0.10;;;;;;;23.94;53.68;101677.59;5033413;28;20040;-65
2022/04/01 00:18:46;;;;;;;0.63;0.05;;;;;;;23.93;54.20;101669.56;5033539;28;20025;-66
2022/04/01 00:21:11;;;;;;;1.10;0.00;;;;;;;23.92;53.78;101668.69;5033343;28;20067;-65
2022/04/01 00:23:37;;;;;;;0.10;0.00;;;;;;;23.90;54.76;101673.53;5033398;28;20028;-65
2022/04/01 00:26:02;;;;;;;0.32;0.10;;;;;;;23.88;54.08;101667.38;5033416;28;20064;-66
2022/04/01 00:28:28;;;;;;;0.08;0.00;;;;;;;23.90;53.72;101670.78;5032731;28;20060;-65
2022/04/01 00:30:54;;;;;;;0.05;0.00;;;;;;;23.89;53.66;101670.97;5033372;28;20407;-66
2022/04/01 00:33:20;;;;;;;1.85;0.10;;;;;;;23.89;54.25;101674.56;5032898;28;20025;-65
2022/04/01 00:35:46;;;;;;;0.70;0.10;;;;;;;23.88;54.17;101680.25;5033391;28;20032;-66
2022/04/01 00:38:12;;;;;;;0.10;0.10;;;;;;;23.87;53.74;101681.31;5033162;28;20030;-67
2022/04/01 00:40:37;;;;;;;0.98;0.10;;;;;;;23.88;54.07;101683.84;5032964;28;20052;-65
2022/04/01 00:43:03;;;;;;;1.27;0.15;;;;;;;23.85;53.66;101675.13;5033185;28;20528;-65
2022/04/01 00:45:28;;;;;;;0.00;0.00;;;;;;;23.86;53.97;101688.69;5032833;28;20040;-65
2022/04/01 00:47:55;;;;;;;0.55;0.15;;;;;;;23.87;53.67;101686.78;5032995;28;20021;-65
2022/04/01 00:50:22;;;;;;;0.10;0.10;;;;;;;23.87;54.02;101690.38;5032810;28;20025;-66
2022/04/01 00:52:48;;;;;;;1.10;0.30;;;;;;;23.87;53.51;101693.13;5033038;28;20067;-65
2022/04/01 00:55:14;;;;;;;0.30;0.00;;;;;;;23.86;54.36;101690.59;5032843;28;20022;-66
2022/04/01 00:57:40;;;;;;;0.20;0.10;;;;;;;23.86;53.73;101690.59;5032391;28;20040;-65
2022/04/01 01:00:06;;;;;;;0.95;0.10;;;;;;;23.86;53.61;101696.06;5032725;28;20025;-65
2022/04/01 01:02:34;;;;;;;0.20;0.00;;;;;;;23.83;53.22;101691.78;5032546;28;20033;-66
2022/04/01 01:04:59;;;;;;;0.40;0.10;;;;;;;23.85;54.08;101691.59;5032670;28;20422;-65
2022/04/01 01:07:24;;;;;;;0.20;0.15;;;;;;;23.82;53.14;101701.06;5032746;28;20029;-65
2022/04/01 01:09:50;;;;;;;0.50;0.13;;;;;;;23.86;53.12;101693.31;5032361;28;20076;-65
2022/04/01 01:12:17;;;;;;;0.50;0.30;;;;;;;23.83;54.22;101691.78;5032779;28;20026;-66
2022/04/01 01:14:44;;;;;;;0.20;0.00;;;;;;;23.85;53.38;101699.81;5032877;28;20109;-66
2022/04/01 01:17:12;;;;;;;0.65;0.20;;;;;;;23.85;54.45;101699.81;5032552;28;20029;-65
2022/04/01 01:19:38;;;;;;;0.00;0.00;;;;;;;23.83;54.24;101701.91;5032484;28;20025;-65
2022/04/01 01:22:04;;;;;;;0.20;0.10;;;;;;;23.80;53.21;101703.16;5032496;28;20083;-66
2022/04/01 01:24:37;;;;;;;0.35;0.20;;;;;;;23.81;53.64;101706.75;5032344;28;20496;-65
2022/04/01 01:27:06;;;;;;;0.25;0.20;;;;;;;23.80;54.59;101705.03;5032316;28;20021;-67
2022/04/01 01:29:32;;;;;;;0.77;0.20;;;;;;;23.83;53.27;101712.91;5032312;28;20025;-65
2022/04/01 01:32:03;;;;;;;0.60;0.10;;;;;;;23.80;54.27;101707.78;5032387;28;20350;-65
2022/04/01 01:34:32;;;;;;;0.82;0.20;;;;;;;23.80;54.57;101694.06;5032168;28;20025;-66
2022/04/01 01:36:58;;;;;;;0.20;0.20;;;;;;;23.82;54.82;101702.94;5032363;28;20048;-65
2022/04/01 01:39:24;;;;;;;0.10;0.10;;;;;;;23.82;54.49;101697.47;5032218;28;20430;-67
2022/04/01 01:41:53;;;;;;;0.10;0.10;;;;;;;23.79;53.33;101701.44;5036395;28;20029;-65
2022/04/01 01:44:19;;;;;;;0.50;0.15;;;;;;;23.80;53.79;101697.66;5036276;28;20029;-65
2022/04/01 01:46:45;;;;;;;0.10;0.10;;;;;;;23.83;54.45;101696.41;5036275;28;20029;-66
2022/04/01 01:49:11;;;;;;;0.20;0.15;;;;;;;23.81;55.48;101693.00;5036218;28;20060;-65
2022/04/01 01:57:05;;;;;;;0.10;0.10;;;;;;;23.81;54.78;101687.53;5036260;28;20064;-66
2022/04/01 01:59:31;;;;;;;0.43;0.10;;;;;;;23.77;54.24;101692.53;5035954;28;20018;-66
2022/04/01 02:01:58;;;;;;;0.00;0.00;;;;;;;23.78;52.91;101693.38;5035976;28;20488;-65
2022/04/01 02:04:24;;;;;;;0.30;0.10;;;;;;;23.81;54.12;101682.03;5035621;28;20045;-65
2022/04/01 02:06:50;;;;;;;0.20;0.10;;;;;;;23.77;52.98;101680.72;5036079;28;20480;-66
2022/04/01 02:09:16;;;;;;;0.00;0.00;;;;;;;23.79;54.22;101684.13;5036186;28;20025;-66
2022/04/01 02:11:42;;;;;;;0.80;0.13;;;;;;;23.82;53.67;101681.84;5035874;28;20029;-66
2022/04/01 02:14:07;;;;;;;0.68;0.13;;;;;;;23.78;54.02;101685.16;5035827;28;20044;-65
2022/04/01 02:16:33;;;;;;;0.10;0.10;;;;;;;23.74;53.91;101681.94;5035717;28;20451;-65
2022/04/01 02:18:59;;;;;;;0.20;0.00;;;;;;;23.75;53.77;101686.38;5035910;28;20058;-65
2022/04/01 02:21:24;;;;;;;0.10;0.00;;;;;;;23.77;54.26;101675.22;5035491;28;20061;-65
2022/04/01 02:23:51;;;;;;;0.32;0.10;;;;;;;23.75;54.59;101688.28;5035937;28;20196;-66
2022/04/01 02:26:17;;;;;;;0.10;0.10;;;;;;;23.71;55.31;101682.31;5035380;28;20132;-65
2022/04/01 02:28:43;;;;;;;1.13;0.17;;;;;;;23.72;54.16;101688.66;5035387;28;20488;-65
2022/04/01 02:31:09;;;;;;;1.27;0.40;;;;;;;23.73;54.14;101691.22;5035558;28;20271;-65
2022/04/01 02:33:35;;;;;;;0.35;0.10;;;;;;;23.75;54.58;101688.28;5035452;28;20060;-65
2022/04/01 02:36:02;;;;;;;0.20;0.20;;;;;;;23.75;54.47;101691.03;5035657;28;20022;-67
2022/04/01 02:38:29;;;;;;;0.17;0.10;;;;;;;23.74;54.67;101697.56;5035132;28;20025;-65
2022/04/01 02:40:56;;;;;;;0.13;0.00;;;;;;;23.74;53.18;101686.56;5035357;28;20021;-65
2022/04/01 02:43:23;;;;;;;0.40;0.10;;;;;;;23.72;54.11;101684.03;5035135;28;20022;-66
2022/04/01 02:45:48;;;;;;;0.45;0.10;;;;;;;23.74;54.52;101689.31;5035301;28;20026;-65
2022/04/01 02:48:19;;;;;;;0.00;0.00;;;;;;;23.74;54.18;101687.44;5035166;28;20021;-65
2022/04/01 02:50:46;;;;;;;0.17;0.10;;;;;;;23.74;53.78;101692.91;5035181;28;20373;-65
2022/04/01 02:53:12;;;;;;;1.65;0.08;;;;;;;23.75;54.01;101699.25;5035064;28;20036;-66
2022/04/01 02:55:40;;;;;;;1.65;0.13;;;;;;;23.76;54.13;101695.47;5034996;28;20025;-67
2022/04/01 02:58:06;;;;;;;0.28;0.10;;;;;;;23.72;54.15;101700.50;5034795;28;20037;-67
2022/04/01 03:00:38;;;;;;;0.25;0.10;;;;;;;23.73;53.95;101687.63;5034792;28;20034;-67
2022/04/01 03:03:06;;;;;;;0.52;0.15;;;;;;;23.72;54.56;101686.78;5034874;28;20040;-67
2022/04/01 03:05:33;;;;;;;0.63;0.20;;;;;;;23.72;54.90;101686.78;5034717;28;20045;-66
2022/04/01 03:07:58;;;;;;;0.08;0.08;;;;;;;23.73;54.41;101682.13;5034854;28;20021;-67
2022/04/01 03:10:24;;;;;;;1.20;0.20;;;;;;;23.72;54.70;101688.66;5034634;28;20135;-67
2022/04/01 03:12:50;;;;;;;1.27;0.30;;;;;;;23.69;54.49;101677.00;5034907;28;20029;-67
2022/04/01 03:15:16;;;;;;;0.13;0.10;;;;;;;23.74;54.24;101678.34;5034642;28;20018;-67
2022/04/01 03:17:42;;;;;;;0.47;0.13;;;;;;;23.73;54.23;101679.38;5033660;28;20488;-68
2022/04/01 03:20:13;;;;;;;0.60;0.40;;;;;;;23.74;54.36;101681.09;5034744;28;20025;-67
2022/04/01 03:22:41;;;;;;;1.35;0.30;;;;;;;23.69;54.22;101677.00;5034595;28;20024;-67
2022/04/01 03:25:09;;;;;;;0.17;0.10;;;;;;;23.73;54.32;101685.72;5033297;28;20048;-68
2022/04/01 03:27:34;;;;;;;0.35;0.10;;;;;;;23.72;54.20;101694.16;5034210;28;20040;-67
2022/04/01 03:29:59;;;;;;;1.02;0.20;;;;;;;23.74;54.33;101689.31;5034456;28;20029;-67
2022/04/01 03:32:26;;;;;;;0.73;0.10;;;;;;;23.76;53.43;101666.13;5034262;28;20025;-67
2022/04/01 03:34:51;;;;;;;0.30;0.13;;;;;;;23.72;54.33;101673.03;5034468;28;20030;-67
2022/04/01 03:37:17;;;;;;;0.52;0.17;;;;;;;23.75;53.39;101678.16;5034170;28;20030;-67
2022/04/01 03:39:42;;;;;;;0.40;0.10;;;;;;;23.72;53.09;101683.16;5034272;28;20033;-68
2022/04/01 03:42:08;;;;;;;0.77;0.17;;;;;;;23.73;53.90;101673.88;5034134;28;20040;-68
2022/04/01 03:44:36;;;;;;;1.17;0.30;;;;;;;23.71;53.95;101682.31;5034122;28;20029;-68
2022/04/01 03:47:10;;;;;;;0.25;0.10;;;;;;;23.75;53.26;101680.03;5032856;28;20031;-68
2022/04/01 03:49:50;;;;;;;0.40;0.22;;;;;;;23.69;53.49;101685.25;5034078;28;20031;-67
2022/04/01 03:52:17;;;;;;;0.30;0.10;;;;;;;23.74;54.04;101681.09;5033939;28;20381;-67
2022/04/01 03:54:46;;;;;;;0.47;0.10;;;;;;;23.75;54.00;101682.78;5034038;28;20087;-67
2022/04/01 03:57:14;;;;;;;0.95;0.20;;;;;;;23.72;54.03;101680.41;5033486;28;20037;-67
2022/04/01 03:59:41;;;;;;;0.32;0.08;;;;;;;23.74;52.56;101686.56;5033845;28;20033;-68
2022/04/01 04:02:13;;;;;;;0.20;0.10;;;;;;;23.79;54.47;101695.09;5033560;28;20385;-67
2022/04/01 04:04:43;;;;;;;0.30;0.10;;;;;;;23.90;53.22;101700.13;5033013;28;20045;-67
2022/04/01 04:07:09;;;;;;;0.30;0.10;;;;;;;23.97;54.02;101692.84;5033846;28;20022;-67
2022/04/01 04:09:39;;;;;;;2.13;0.20;;;;;;;24.02;54.66;101695.91;5033711;28;20052;-67
2022/04/01 04:12:06;;;;;;;0.20;0.00;;;;;;;24.03;53.93;101689.38;5033668;28;20100;-67
2022/04/01 04:14:33;;;;;;;0.68;0.30;;;;;;;24.04;52.67;101693.81;5033539;28;20075;-67
2022/04/01 04:17:05;;;;;;;0.13;0.10;;;;;;;24.04;51.01;101688.31;5033657;28;20071;-67
2022/04/01 04:20:08;;;;;;;0.90;0.17;;;;;;;24.07;51.28;101693.44;5033433;28;20048;-67
2022/04/01 04:22:45;;;;;;;0.28;0.25;;;;;;;24.06;50.60;101688.97;5033356;28;20527;-67
2022/04/01 04:25:14;;;;;;;1.00;0.25;;;;;;;24.11;50.86;101693.91;5033354;28;20025;-67
2022/04/01 04:27:51;;;;;;;0.20;0.20;;;;;;;24.14;50.24;101694.38;5033081;28;20025;-67
2022/04/01 04:30:17;;;;;;;1.17;0.10;;;;;;;24.14;50.56;101707.25;5033247;28;20493;-67
2022/04/01 04:33:01;;;;;;;0.65;0.10;;;;;;;24.13;49.49;101709.16;5033329;28;20061;-67
2022/04/01 04:35:28;;;;;;;0.20;0.00;;;;;;;24.18;50.31;101712.16;5033084;28;20025;-67
2022/04/01 04:37:56;;;;;;;0.98;0.20;;;;;;;24.16;49.99;101708.75;5033186;28;20056;-67
2022/04/01 04:40:22;;;;;;;1.27;0.35;;;;;;;24.20;49.54;101712.84;5032883;28;20029;-67
2022/04/01 04:42:53;;;;;;;0.15;0.15;;;;;;;24.20;49.53;101718.34;5031970;28;20021;-67
2022/04/01 04:45:20;;;;;;;0.25;0.10;;;;;;;24.22;49.25;101716.25;5032935;28;20108;-67
2022/04/01 04:47:47;;;;;;;0.35;0.20;;;;;;;24.22;49.10;101709.91;5032923;28;20477;-67
2022/04/01 04:50:13;;;;;;;0.10;0.10;;;;;;;24.24;49.64;101711.44;5032964;28;20033;-67
2022/04/01 04:52:39;;;;;;;1.00;0.20;;;;;;;24.25;49.05;101715.88;5032937;28;20030;-67
2022/04/01 04:55:10;;;;;;;1.85;0.40;;;;;;;24.24;49.18;101721.56;5031715;28;20469;-67
2022/04/01 04:57:38;;;;;;;0.28;0.10;;;;;;;24.27;48.94;101722.03;5031335;28;20112;-67
2022/04/01 05:00:05;;;;;;;0.47;0.20;;;;;;;24.26;48.92;101731.31;5032773;28;20034;-67
2022/04/01 05:03:08;;;;;;;0.43;0.20;;;;;;;24.28;49.27;101731.97;5032636;28;20025;-67
2022/04/01 05:05:41;;;;;;;0.20;0.15;;;;;;;24.27;49.39;101733.03;5032440;28;20056;-67
2022/04/01 05:08:34;;;;;;;0.20;0.10;;;;;;;24.29;49.14;101733.72;5033008;28;20515;-67
2022/04/01 05:11:13;;;;;;;0.47;0.20;;;;;;;24.32;49.05;101723.38;5032788;28;20025;-67
2022/04/01 05:14:01;;;;;;;0.22;0.10;;;;;;;24.26;48.49;101735.97;5032421;28;20477;-67
2022/04/01 05:16:52;;;;;;;0.28;0.10;;;;;;;24.33;49.06;101719.59;5032166;28;20504;-67
2022/04/01 05:19:25;;;;;;;3.85;0.30;;;;;;;24.25;48.50;101713.13;5031162;28;20053;-67
2022/04/01 05:22:01;;;;;;;0.22;0.22;;;;;;;24.32;49.16;101723.38;5032437;28;20018;-67
2022/04/01 05:24:36;;;;;;;0.70;0.20;;;;;;;24.35;49.11;101715.59;5032300;28;20033;-67
2022/04/01 05:27:03;;;;;;;1.42;0.10;;;;;;;24.30;48.48;101721.69;5032195;28;20029;-67
2022/04/01 05:29:36;;;;;;;2.40;0.30;;;;;;;24.34;49.20;101730.38;5032350;28;20441;-66
2022/04/01 05:32:03;;;;;;;0.57;0.10;;;;;;;24.36;48.99;101724.72;5032402;28;20018;-66
2022/04/01 05:34:44;;;;;;;1.00;0.30;;;;;;;24.36;48.66;101725.59;5032199;28;20051;-67
2022/04/01 05:37:11;;;;;;;0.17;0.17;;;;;;;24.35;48.39;101723.84;5032035;28;20544;-67
2022/04/01 05:39:38;;;;;;;0.45;0.20;;;;;;;24.31;48.48;101722.53;5032290;28;20281;-67
2022/04/01 05:42:07;;;;;;;0.50;0.15;;;;;;;24.37;49.23;101723.69;5032248;28;20056;-66
2022/04/01 05:44:33;;;;;;;0.00;0.00;;;;;;;24.36;48.81;101731.09;5032206;28;20401;-66
2022/04/01 05:46:58;;;;;;;0.70;0.10;;;;;;;24.39;48.93;101735.34;5032351;28;20024;-66
2022/04/01 05:49:25;;;;;;;1.05;0.10;;;;;;;24.39;49.09;101730.69;5032010;28;20060;-66
2022/04/01 05:51:52;;;;;;;0.40;0.10;;;;;;;24.39;47.97;101732.59;5032274;28;20112;-66
2022/04/01 05:54:19;;;;;;;1.02;0.32;;;;;;;24.39;48.89;101735.34;5032382;28;20029;-66
2022/04/01 05:56:47;;;;;;;0.38;0.10;;;;;;;24.40;48.98;101737.03;5031959;28;20075;-67
2022/04/01 05:59:14;;;;;;;0.20;0.10;;;;;;;24.42;48.25;101741.31;5031868;28;20040;-67
2022/04/01 06:02:05;;;;;;;0.28;0.15;;;;;;;24.38;48.74;101744.63;5031958;28;20468;-67
2022/04/01 06:04:58;;;;;;;0.52;0.10;;;;;;;24.42;48.44;101735.81;5031747;28;20080;-67
2022/04/01 06:07:31;;;;;;;0.95;0.20;;;;;;;24.41;48.04;101739.59;5031900;28;20021;-67
2022/04/01 06:10:09;;;;;;;0.35;0.10;;;;;;;24.41;49.08;101749.75;5032090;28;20385;-66
2022/04/01 06:12:37;;;;;;;0.10;0.00;;;;;;;24.43;48.93;101736.66;5031931;28;20025;-67
2022/04/01 06:15:26;;;;;;;0.13;0.13;;;;;;;24.40;48.39;101737.03;5032101;28;20017;-66
2022/04/01 06:18:14;;;;;;;0.57;0.10;;;;;;;24.42;49.11;101738.56;5032236;28;20068;-66
2022/04/01 06:20:41;;;;;;;0.15;0.03;;;;;;;24.41;49.09;101739.59;5031912;28;20040;-66
2022/04/01 06:23:12;;;;;;;0.85;0.10;;;;;;;24.46;48.35;101744.53;5031953;28;20034;-67
2022/04/01 06:25:43;;;;;;;1.00;0.30;;;;;;;24.45;48.77;101751.06;5032349;28;20044;-67
2022/04/01 06:28:26;;;;;;;0.10;0.10;;;;;;;24.42;48.70;101745.94;5034381;28;20386;-66
2022/04/01 06:30:55;;;;;;;0.77;0.20;;;;;;;24.41;48.91;101750.59;5035592;28;20017;-66
2022/04/01 06:33:27;;;;;;;0.77;0.10;;;;;;;24.44;48.98;101755.72;5035418;28;20107;-66
2022/04/01 06:35:56;;;;;;;0.57;0.20;;;;;;;24.46;49.49;101752.75;5034186;28;20496;-66
2022/04/01 06:38:34;;;;;;;0.75;0.20;;;;;;;24.46;49.05;101750.00;5035298;28;20025;-66
2022/04/01 06:41:05;;;;;;;0.70;0.10;;;;;;;24.45;49.16;101751.91;5035395;28;20029;-66
2022/04/01 06:43:30;;;;;;;1.25;0.15;;;;;;;24.48;48.70;101756.16;5035205;28;20021;-66
2022/04/01 06:45:56;;;;;;;0.65;0.17;;;;;;;24.47;49.06;101759.97;5035294;28;20030;-66
2022/04/01 06:48:21;;;;;;;0.98;0.10;;;;;;;24.47;49.15;101754.47;5034954;28;20100;-66
2022/04/01 06:50:49;;;;;;;0.70;0.13;;;;;;;24.48;48.83;101767.16;5035338;28;20385;-66
2022/04/01 06:53:18;;;;;;;0.85;0.10;;;;;;;24.49;49.53;101763.38;5035081;28;20021;-66
2022/04/01 06:55:45;;;;;;;0.90;0.10;;;;;;;24.47;49.00;101759.97;5034855;28;20386;-66
2022/04/01 06:58:11;;;;;;;0.10;0.05;;;;;;;24.47;49.18;101759.97;5035066;28;20029;-66
2022/04/01 07:00:40;;;;;;;0.30;0.05;;;;;;;24.45;49.49;101765.66;5034915;28;20483;-66
2022/04/01 07:03:07;;;;;;;0.30;0.10;;;;;;;24.44;49.45;101774.09;5035077;28;20422;-66
2022/04/01 07:05:34;;;;;;;0.55;0.10;;;;;;;24.45;48.76;101767.56;5034702;28;20052;-66
2022/04/01 07:08:01;;;;;;;1.13;0.30;;;;;;;24.48;48.62;101767.16;5034920;28;20053;-66
2022/04/01 07:10:26;;;;;;;1.20;0.30;;;;;;;24.47;48.83;101766.31;5034597;28;20025;-66
2022/04/01 07:12:52;;;;;;;0.20;0.10;;;;;;;24.47;48.95;101776.47;5034883;28;20117;-66
2022/04/01 07:15:17;;;;;;;0.90;0.10;;;;;;;24.48;49.31;101775.41;5033409;28;20060;-66
2022/04/01 07:17:42;;;;;;;0.57;0.43;;;;;;;24.50;49.57;101770.56;5034725;28;20025;-66
2022/04/01 07:20:10;;;;;;;0.10;0.10;;;;;;;24.48;49.04;101773.53;5034535;28;20029;-66
2022/04/01 07:22:36;;;;;;;1.30;0.30;;;;;;;24.48;48.75;101772.66;5034630;28;20026;-66
2022/04/01 07:25:01;;;;;;;0.10;0.10;;;;;;;24.49;48.04;101768.88;5034650;28;20055;-66
2022/04/01 07:27:29;;;;;;;0.70;0.30;;;;;;;24.49;49.65;101779.88;5034080;28;20025;-65
2022/04/01 07:29:54;;;;;;;0.47;0.20;;;;;;;24.48;48.61;101773.53;5034813;28;20030;-66
2022/04/01 07:32:34;;;;;;;0.75;0.10;;;;;;;24.50;48.93;101770.56;5034297;28;20048;-65
2022/04/01 07:35:03;;;;;;;0.60;0.20;;;;;;;24.49;50.15;101771.63;5034445;28;20036;-65
2022/04/01 07:37:29;;;;;;;0.30;0.20;;;;;;;24.49;49.13;101768.88;5033458;28;20091;-65
2022/04/01 07:39:59;;;;;;;0.43;0.17;;;;;;;24.51;48.49;101761.28;5034341;28;20021;-65
2022/04/01 07:42:26;;;;;;;0.30;0.17;;;;;;;24.50;49.12;101770.56;5034032;28;20164;-66
2022/04/01 07:44:51;;;;;;;0.52;0.47;;;;;;;24.50;49.73;101770.56;5034292;28;20021;-65
2022/04/01 07:47:18;;;;;;;0.20;0.10;;;;;;;24.49;49.09;101790.88;5034311;28;20468;-66
2022/04/01 07:49:45;;;;;;;0.90;0.25;;;;;;;24.50;49.21;101774.19;5034186;28;20040;-66
2022/04/01 07:52:12;;;;;;;0.40;0.10;;;;;;;24.49;49.27;101799.09;5034006;28;20149;-66
2022/04/01 07:54:40;;;;;;;0.50;0.20;;;;;;;24.47;49.67;101787.47;5034043;28;20114;-66
2022/04/01 07:57:07;;;;;;;0.40;0.10;;;;;;;24.49;48.89;101775.22;5033804;28;20049;-66
2022/04/01 07:59:34;;;;;;;0.10;0.10;;;;;;;24.50;48.65;101782.44;5033823;28;20028;-66
2022/04/01 08:02:00;;;;;;;0.28;0.20;;;;;;;24.52;48.45;101784.97;5033826;28;20032;-66
2022/04/01 08:04:26;;;;;;;0.10;0.10;;;;;;;24.51;49.02;101780.53;5033706;28;20488;-66
2022/04/01 08:06:52;;;;;;;0.75;0.15;;;;;;;24.54;49.92;101781.03;5032604;28;20115;-66
2022/04/01 08:09:18;;;;;;;0.22;0.13;;;;;;;24.48;49.11;101778.16;5033629;28;20410;-66
2022/04/01 08:11:43;;;;;;;1.00;0.13;;;;;;;24.50;48.93;101787.06;5033661;28;20025;-66
2022/04/01 08:14:08;;;;;;;0.10;0.10;;;;;;;24.51;49.38;101784.13;5033914;28;20424;-66
2022/04/01 08:16:33;;;;;;;0.60;0.08;;;;;;;24.49;48.24;101791.72;5033588;28;20025;-66
2022/04/01 08:18:59;;;;;;;0.10;0.08;;;;;;;24.53;49.77;101786.72;5033630;28;20025;-66
2022/04/01 08:21:25;;;;;;;0.40;0.10;;;;;;;24.50;48.08;101787.06;5033315;28;20057;-66
2022/04/01 08:23:51;;;;;;;0.85;0.17;;;;;;;24.51;49.29;101783.28;5033467;28;20026;-66
2022/04/01 08:26:16;;;;;;;0.65;0.30;;;;;;;24.52;48.98;101784.97;5032912;28;20071;-66
2022/04/01 08:28:42;;;;;;;0.75;0.10;;;;;;;24.53;49.72;101787.56;5033311;28;20480;-66
2022/04/01 08:31:09;;;;;;;0.20;0.10;;;;;;;24.53;49.29;101781.22;5033403;28;20103;-66
2022/04/01 08:33:35;;;;;;;0.17;0.15;;;;;;;24.54;48.79;101785.69;5033458;28;20109;-65
2022/04/01 08:36:00;;;;;;;0.20;0.17;;;;;;;24.50;49.29;101787.06;5033070;28;20030;-65
2022/04/01 08:38:26;;;;;;;0.32;0.10;;;;;;;24.53;49.34;101792.22;5033007;28;20047;-66
2022/04/01 08:40:51;;;;;;;1.20;0.30;;;;;;;24.54;49.09;101796.66;5033121;28;20028;-65
2022/04/01 08:43:26;;;;;;;0.28;0.20;;;;;;;24.52;48.78;101801.47;5033356;28;20076;-66
2022/04/01 08:45:52;;;;;;;0.55;0.10;;;;;;;24.51;48.84;101795.13;5033009;28;20033;-65
2022/04/01 08:48:17;;;;;;;0.75;0.10;;;;;;;24.53;49.36;101793.06;5032935;28;20026;-66
2022/04/01 08:50:43;;;;;;;0.80;0.20;;;;;;;24.52;48.65;101801.47;5032927;28;20017;-66
2022/04/01 08:53:08;;;;;;;1.42;0.30;;;;;;;24.53;49.18;101804.06;5033046;28;20346;-66
2022/04/01 08:55:33;;;;;;;1.15;0.20;;;;;;;24.54;48.83;101804.91;5032554;28;20048;-66
2022/04/01 08:57:59;;;;;;;1.63;0.20;;;;;;;24.53;48.48;101811.47;5032873;28;20420;-66
2022/04/01 09:00:24;;;;;;;0.15;0.15;;;;;;;24.48;49.20;101814.75;5032563;28;20033;-66
2022/04/01 09:02:59;;;;;;;0.77;0.10;;;;;;;24.50;48.75;101812.66;5032938;28;20026;-66
2022/04/01 09:05:25;;;;;;;0.13;0.13;;;;;;;24.52;49.04;101823.47;5032502;28;20091;-66
2022/04/01 09:08:06;;;;;;;0.38;0.30;;;;;;;24.54;49.64;101821.41;5032738;28;20401;-66
2022/04/01 09:10:49;;;;;;;0.80;0.10;;;;;;;24.53;48.56;101819.69;5032530;28;20556;-66
2022/04/01 09:13:14;;;;;;;0.40;0.25;;;;;;;24.50;48.68;101826.41;5032569;28;20025;-66
2022/04/01 09:15:42;;;;;;;1.65;0.25;;;;;;;24.56;48.85;101819.31;5032500;28;20381;-66
2022/04/01 09:18:09;;;;;;;1.13;0.30;;;;;;;24.52;48.72;101826.22;5032545;28;20021;-66
2022/04/01 09:20:46;;;;;;;0.20;0.20;;;;;;;24.56;48.84;101830.31;5032374;28;20026;-66
2022/04/01 09:23:11;;;;;;;1.30;0.40;;;;;;;24.53;48.83;101830.69;5032426;28;20021;-66
2022/04/01 09:25:46;;;;;;;0.40;0.13;;;;;;;24.53;49.18;101841.69;5032135;28;20021;-66
2022/04/01 09:28:23;;;;;;;0.25;0.13;;;;;;;24.54;48.42;101843.41;5032379;28;20029;-66
2022/04/01 09:30:56;;;;;;;0.15;0.10;;;;;;;24.55;48.84;101839.59;5032577;28;20199;-66
2022/04/01 09:33:21;;;;;;;1.00;0.20;;;;;;;24.52;49.14;101849.09;5031983;28;20456;-65
2022/04/01 09:35:47;;;;;;;0.70;0.20;;;;;;;24.52;48.91;101845.47;5032373;28;20116;-66
2022/04/01 09:38:12;;;;;;;0.15;0.10;;;;;;;24.55;49.22;101842.34;5032278;28;20071;-66
2022/04/01 09:40:37;;;;;;;0.47;0.30;;;;;;;24.53;49.29;101850.78;5032219;28;20064;-66
2022/04/01 09:43:03;;;;;;;0.95;0.35;;;;;;;24.51;49.07;101852.00;5032461;28;20028;-66
2022/04/01 09:45:31;;;;;;;1.88;0.45;;;;;;;24.52;48.11;101838.09;5032162;28;20026;-66
2022/04/01 09:48:08;;;;;;;0.28;0.08;;;;;;;24.51;48.68;101852.84;5032225;28;20487;-66
2022/04/01 09:50:40;;;;;;;0.35;0.15;;;;;;;24.53;48.46;101848.03;5030889;28;20101;-66
2022/04/01 09:53:06;;;;;;;0.85;0.10;;;;;;;24.52;47.94;101843.59;5032321;28;20018;-66
2022/04/01 09:55:39;;;;;;;0.70;0.30;;;;;;;24.52;48.29;101856.44;5030504;28;20124;-66
2022/04/01 09:58:06;;;;;;;0.30;0.10;;;;;;;24.53;49.02;101863.69;5032231;28;20112;-66
2022/04/01 10:00:34;;;;;;;0.22;0.22;;;;;;;24.52;48.78;101862.84;5032204;28;20283;-66
2022/04/01 10:02:59;;;;;;;0.75;0.17;;;;;;;24.53;48.63;101869.19;5036229;28;20120;-66
2022/04/01 10:05:25;;;;;;;0.63;0.10;;;;;;;24.54;49.33;101865.41;5035778;28;20121;-66
2022/04/01 10:07:53;;;;;;;0.40;0.20;;;;;;;24.55;48.73;101864.34;5035993;28;20036;-66
2022/04/01 10:10:19;;;;;;;0.20;0.10;;;;;;;24.55;47.96;101864.34;5035871;28;20031;-66
2022/04/01 10:12:47;;;;;;;0.10;0.10;;;;;;;24.53;49.65;101863.69;5035957;28;20033;-66
2022/04/01 10:15:13;;;;;;;0.70;0.20;;;;;;;24.55;49.50;101856.97;5035889;28;20048;-66
2022/04/01 10:17:40;;;;;;;0.40;0.10;;;;;;;24.56;48.91;101858.66;5035925;28;20068;-66
2022/04/01 10:20:08;;;;;;;1.08;0.10;;;;;;;24.54;48.41;101857.16;5035801;28;20407;-66
2022/04/01 10:22:35;;;;;;;0.20;0.20;;;;;;;24.51;48.42;101860.25;5035695;28;20341;-66
2022/04/01 10:25:19;;;;;;;1.40;0.17;;;;;;;24.52;48.82;101854.59;5035796;28;20029;-66
2022/04/01 10:27:50;;;;;;;0.28;0.15;;;;;;;24.54;48.81;101855.25;5016005;28;20493;-66
2022/04/01 10:30:17;;;;;;;0.10;0.08;;;;;;;24.52;48.12;101856.44;5015796;28;20077;-66
2022/04/01 10:32:45;;;;;;;0.00;0.00;;;;;;;24.51;47.77;101849.25;5015877;28;20033;-66
2022/04/01 10:35:39;;;;;;;0.43;0.20;;;;;;;24.55;48.00;101853.34;5015722;28;20029;-66
2022/04/01 10:38:05;;;;;;;0.55;0.10;;;;;;;24.56;49.13;101852.31;4954805;29;20494;-66
2022/04/01 10:40:32;;;;;;;0.57;0.10;;;;;;;24.55;48.79;101845.09;4954794;29;20095;-66
2022/04/01 10:43:13;;;;;;;1.05;0.13;;;;;;;24.56;49.58;101852.31;4955024;29;20035;-66
2022/04/01 10:45:41;;;;;;;0.30;0.10;;;;;;;24.53;48.89;101853.53;4938772;29;20023;-66
2022/04/01 10:51:36;;;;;;;1.25;0.10;;;;;;;24.54;48.28;101852.50;4954868;29;20042;-66
2022/04/01 10:54:23;;;;;;;0.68;0.03;;;;;;;24.52;48.95;101851.84;4954675;29;20038;-66
2022/04/01 10:56:54;;;;;;;0.40;0.10;;;;;;;24.56;48.08;101857.81;4909540;29;20168;-66
2022/04/01 10:59:23;;;;;;;0.63;0.10;;;;;;;24.55;48.09;101858.84;4903889;29;20032;-65
2022/04/01 11:01:51;;;;;;;0.52;0.10;;;;;;;24.37;45.88;101863.84;4897412;29;20056;-66
2022/04/01 11:04:17;;;;;;;1.48;0.28;;;;;;;24.31;45.65;101862.69;4897277;29;20057;-66
2022/04/01 11:07:03;;;;;;;1.20;0.20;;;;;;;24.41;45.22;101867.94;4897524;29;20051;-66
2022/04/01 11:09:38;;;;;;;0.73;0.10;;;;;;;24.37;47.51;101855.59;4897286;29;20306;-67
2022/04/01 11:12:25;;;;;;;0.20;0.20;;;;;;;24.37;45.60;101863.84;4896575;29;20033;-67
2022/04/01 11:14:53;;;;;;;1.55;0.38;;;;;;;24.41;47.33;101859.69;4921709;29;20130;-67
2022/04/01 11:17:18;;;;;;;0.10;0.10;;;;;;;24.38;44.54;101854.56;4950187;29;20121;-67
2022/04/01 11:20:02;;;;;;;0.35;0.20;;;;;;;24.40;46.45;101868.97;4954331;29;20151;-67
2022/04/01 11:22:37;;;;;;;0.20;0.20;;;;;;;24.33;47.28;101862.50;4953989;29;20038;-66
2022/04/01 11:25:04;;;;;;;0.85;0.10;;;;;;;24.40;46.42;101856.09;4953880;29;20078;-66
2022/04/01 11:27:30;;;;;;;0.52;0.22;;;;;;;24.33;45.15;101877.09;4953803;29;20039;-67
2022/04/01 11:30:13;;;;;;;0.40;0.20;;;;;;;24.23;44.16;101858.09;4954080;29;20035;-67
2022/04/01 11:32:41;;;;;;;0.47;0.20;;;;;;;24.34;46.02;101847.72;4954165;29;20031;-67
2022/04/01 11:35:08;;;;;;;0.55;0.20;;;;;;;24.26;45.28;101846.72;5013991;28;20048;-67
2022/04/01 11:37:40;;;;;;;1.05;0.40;;;;;;;24.28;44.76;101850.16;5017763;28;20419;-67
2022/04/01 11:40:06;;;;;;;0.63;0.10;;;;;;;24.20;43.78;101844.75;5031524;28;20469;-67
2022/04/01 11:42:32;;;;;;;0.30;0.30;;;;;;;24.26;45.17;101835.75;5039628;28;20109;-67